Time;durP1;ratioP1;P1;durP2;ratioP2;P2;SDS_P1;SDS_P2;PMS_P1;PMS_P2;Temp;Humidity;BMP_temperature;BMP_pressure;BME280_temperature;BME280_humidity;BME280_pressure;Samples;Min_cycle;Max_cycle;Signal;HPM_P1;HPM_P2
2022/07/02 00:01:55;;;;;;;11.43;3.33;;;;;;;18.69;57.51;98646.19;8417425;28;20432;-79
2022/07/02 00:06:00;;;;;;;9.67;3.03;;;;;;;18.61;57.72;98648.50;8418134;28;20450;-79
2022/07/02 00:10:04;;;;;;;8.03;3.10;;;;;;;18.49;58.14;98644.91;8417691;28;20231;-79
2022/07/02 00:14:09;;;;;;;4.87;3.17;;;;;;;18.52;58.02;98652.59;8417808;28;20242;-79
2022/07/02 00:18:12;;;;;;;9.37;3.07;;;;;;;18.46;58.02;98645.09;8417647;28;20234;-79
2022/07/02 00:22:15;;;;;;;6.83;3.23;;;;;;;18.42;57.75;98641.00;8417607;28;20227;-79
2022/07/02 00:26:21;;;;;;;8.67;3.43;;;;;;;18.21;58.48;98640.63;8417403;28;20219;-80
2022/07/02 00:30:25;;;;;;;6.20;3.40;;;;;;;18.53;57.80;98646.38;8416799;28;20241;-80
2022/07/02 00:34:30;;;;;;;5.27;2.83;;;;;;;18.55;57.17;98647.13;8417190;28;20350;-79
2022/07/02 00:38:32;;;;;;;7.70;3.57;;;;;;;18.51;57.59;98650.06;8416652;28;20232;-78
2022/07/02 00:42:36;;;;;;;6.23;3.33;;;;;;;18.50;58.06;98641.34;8415897;28;20228;-79
2022/07/02 00:46:41;;;;;;;5.73;3.30;;;;;;;18.34;57.78;98648.53;8416946;28;20453;-79
2022/07/02 00:50:50;;;;;;;7.47;3.70;;;;;;;18.35;58.16;98650.22;8416795;28;20580;-79
2022/07/02 00:54:53;;;;;;;5.70;3.40;;;;;;;18.17;58.52;98655.72;8416530;28;20235;-79
2022/07/02 00:58:56;;;;;;;6.17;3.60;;;;;;;18.23;58.26;98643.16;8416291;28;20230;-79
2022/07/02 01:03:00;;;;;;;5.60;3.83;;;;;;;18.14;58.67;98653.31;8415713;28;20227;-79
2022/07/02 01:07:05;;;;;;;6.63;3.33;;;;;;;18.06;58.15;98657.34;8414089;28;20234;-79
2022/07/02 01:11:08;;;;;;;7.23;3.77;;;;;;;18.07;58.50;98662.50;8414816;28;20561;-79
2022/07/02 01:15:11;;;;;;;6.23;3.77;;;;;;;18.05;58.72;98659.13;8414866;28;20522;-79
2022/07/02 01:19:18;;;;;;;4.97;3.50;;;;;;;17.97;58.46;98657.00;8414627;28;20251;-79
2022/07/02 01:23:22;;;;;;;4.73;3.67;;;;;;;17.85;58.73;98652.53;8414382;28;20249;-80
2022/07/02 01:27:25;;;;;;;15.63;3.93;;;;;;;17.82;58.61;98662.31;8414075;28;20230;-80
2022/07/02 01:31:28;;;;;;;6.30;3.70;;;;;;;17.91;58.52;98648.69;8414199;28;20238;-79
2022/07/02 01:35:31;;;;;;;8.80;3.70;;;;;;;17.86;58.50;98641.13;8414218;28;20430;-79
2022/07/02 01:39:35;;;;;;;6.67;3.50;;;;;;;17.81;58.44;98639.69;8413980;28;20235;-79
2022/07/02 01:43:37;;;;;;;7.87;3.80;;;;;;;17.61;59.04;98638.31;8413776;28;20338;-79
2022/07/02 01:47:40;;;;;;;6.90;3.53;;;;;;;17.73;58.45;98645.44;8414097;28;20298;-80
2022/07/02 01:51:43;;;;;;;8.70;3.33;;;;;;;17.76;57.89;98639.97;8413739;28;20226;-80
2022/07/02 01:55:47;;;;;;;6.87;3.10;;;;;;;17.75;58.13;98639.16;8413621;28;20226;-79
2022/07/02 01:59:50;;;;;;;4.90;3.83;;;;;;;17.46;58.57;98643.59;8413988;28;20509;-79
2022/07/02 02:03:53;;;;;;;5.03;3.17;;;;;;;17.64;58.22;98643.38;8413601;28;20238;-80
2022/07/02 02:07:56;;;;;;;6.93;3.50;;;;;;;17.63;58.24;98650.41;8413898;28;20227;-79
2022/07/02 02:12:00;;;;;;;10.43;3.43;;;;;;;17.75;57.68;98649.63;8413675;28;20226;-79
2022/07/02 02:16:03;;;;;;;5.93;3.10;;;;;;;17.59;57.89;98638.41;8413616;28;20540;-79
2022/07/02 02:20:07;;;;;;;11.00;3.97;;;;;;;17.38;58.71;98640.59;8413382;28;20231;-80
2022/07/02 02:24:10;;;;;;;7.00;3.40;;;;;;;17.45;58.54;98654.16;8413398;28;20226;-80
2022/07/02 02:28:14;;;;;;;6.50;3.63;;;;;;;17.25;59.08;98655.34;8413472;28;20248;-79
2022/07/02 02:32:17;;;;;;;6.80;3.20;;;;;;;17.41;58.98;98658.72;8413187;28;20229;-79
2022/07/02 02:36:20;;;;;;;6.03;2.87;;;;;;;17.44;58.12;98653.31;8413264;28;20234;-79
2022/07/02 02:40:23;;;;;;;9.90;3.50;;;;;;;17.40;58.72;98654.41;8412673;28;20517;-78
2022/07/02 02:44:27;;;;;;;6.50;3.00;;;;;;;17.49;57.87;98660.88;8413013;28;20226;-79
2022/07/02 02:48:30;;;;;;;11.37;3.30;;;;;;;17.41;57.86;98657.91;8413134;28;20238;-79
2022/07/02 02:52:33;;;;;;;6.90;2.90;;;;;;;17.31;58.46;98649.78;8412844;28;20528;-79
2022/07/02 02:56:36;;;;;;;9.00;3.00;;;;;;;17.27;58.39;98649.13;8412957;28;20235;-79
2022/07/02 03:00:40;;;;;;;10.23;3.43;;;;;;;17.24;57.94;98648.47;8412870;28;20533;-79
2022/07/02 03:04:43;;;;;;;6.90;2.83;;;;;;;17.30;58.17;98659.38;8413800;28;20233;-79
2022/07/02 03:08:46;;;;;;;9.17;3.40;;;;;;;17.27;58.38;98658.72;8418815;28;20222;-79
2022/07/02 03:12:49;;;;;;;5.63;3.07;;;;;;;17.22;58.13;98653.78;8418694;28;20223;-79
2022/07/02 03:16:53;;;;;;;6.93;3.20;;;;;;;16.70;59.25;98659.47;8418443;28;20528;-79
2022/07/02 03:20:56;;;;;;;8.80;3.23;;;;;;;17.06;58.33;98661.72;8418408;28;20226;-79
2022/07/02 03:24:59;;;;;;;8.73;3.10;;;;;;;16.92;58.59;98666.91;8418482;28;20427;-79
2022/07/02 03:29:01;;;;;;;9.53;3.33;;;;;;;17.07;57.95;98668.63;8418402;28;20423;-79
2022/07/02 03:33:05;;;;;;;4.70;2.80;;;;;;;17.11;57.91;98679.75;8417913;28;20254;-79
2022/07/02 03:37:08;;;;;;;4.87;3.17;;;;;;;16.66;59.28;98678.88;8417912;28;20285;-79
2022/07/02 03:41:11;;;;;;;5.20;3.03;;;;;;;16.75;59.41;98680.94;8417955;28;20241;-79
2022/07/02 03:45:14;;;;;;;7.07;3.17;;;;;;;16.74;59.35;98681.91;8417905;28;20222;-79
2022/07/02 03:49:18;;;;;;;5.13;3.00;;;;;;;16.91;58.82;98686.19;8417696;28;20238;-80
2022/07/02 03:53:21;;;;;;;5.87;3.30;;;;;;;16.95;59.10;98687.69;8417595;28;20241;-80
2022/07/02 03:57:24;;;;;;;5.47;3.63;;;;;;;16.74;59.75;98690.59;8416996;28;20234;-79
2022/07/02 04:01:27;;;;;;;5.50;2.90;;;;;;;16.83;59.75;98694.47;8417070;28;20222;-80
2022/07/02 04:05:31;;;;;;;5.40;3.23;;;;;;;16.85;59.42;98697.84;8417119;28;20231;-79
2022/07/02 04:09:34;;;;;;;3.80;3.10;;;;;;;17.03;58.98;98693.28;8417138;28;20239;-79
2022/07/02 04:13:36;;;;;;;6.33;3.17;;;;;;;16.77;59.80;98702.63;8416947;28;20234;-79
2022/07/02 04:17:39;;;;;;;6.23;3.00;;;;;;;16.93;59.33;98700.00;8416467;28;20257;-79
2022/07/02 04:21:43;;;;;;;5.93;3.20;;;;;;;16.49;60.92;98706.84;8416554;28;20238;-79
2022/07/02 04:25:46;;;;;;;7.07;3.40;;;;;;;16.78;60.46;98702.53;8416275;28;20227;-79
2022/07/02 04:29:49;;;;;;;5.87;2.87;;;;;;;16.82;60.39;98711.09;8416343;28;20233;-79
2022/07/02 04:33:52;;;;;;;8.60;3.93;;;;;;;16.56;60.69;98708.19;8416296;28;20227;-80
2022/07/02 04:37:56;;;;;;;9.23;3.40;;;;;;;16.45;61.29;98717.53;8415905;28;20233;-80
2022/07/02 04:41:59;;;;;;;6.63;3.10;;;;;;;16.48;62.54;98706.94;8416073;28;20615;-79
2022/07/02 04:46:01;;;;;;;8.83;3.97;;;;;;;16.64;61.89;98699.91;8415927;28;20226;-79
2022/07/02 04:50:05;;;;;;;10.93;4.20;;;;;;;16.37;62.12;98702.28;8415630;28;20309;-80
2022/07/02 04:54:09;;;;;;;8.73;3.77;;;;;;;16.49;62.10;98706.84;8415742;28;20226;-80
2022/07/02 04:58:12;;;;;;;6.57;3.90;;;;;;;16.82;62.11;98713.72;8415458;28;20245;-80
2022/07/02 05:02:14;;;;;;;8.17;4.37;;;;;;;16.57;62.24;98714.25;8415027;28;20253;-80
2022/07/02 05:06:17;;;;;;;9.63;4.20;;;;;;;16.89;62.06;98716.81;8415173;28;20229;-79
2022/07/02 05:10:22;;;;;;;6.97;3.63;;;;;;;17.33;60.66;98711.56;8415056;28;20234;-79
2022/07/02 05:14:25;;;;;;;10.97;4.03;;;;;;;16.89;62.49;98720.28;8414545;28;20231;-80
2022/07/02 05:18:28;;;;;;;7.07;3.60;;;;;;;17.09;63.20;98720.88;8414811;28;20237;-81
2022/07/02 05:22:31;;;;;;;8.93;4.17;;;;;;;16.87;62.65;98732.59;8414705;28;20242;-81
2022/07/02 05:26:35;;;;;;;7.30;4.10;;;;;;;17.24;62.22;98727.81;8399871;28;20239;-81
2022/07/02 05:30:38;;;;;;;5.77;3.33;;;;;;;17.50;62.67;98728.88;8381129;28;20224;-81
2022/07/02 05:34:41;;;;;;;8.83;4.20;;;;;;;17.30;63.18;98739.69;8381453;28;20231;-81
2022/07/02 05:38:44;;;;;;;5.07;3.40;;;;;;;17.87;62.26;98738.91;8381155;28;20398;-81
2022/07/02 05:42:48;;;;;;;10.53;4.17;;;;;;;17.87;62.00;98738.91;8381223;28;20232;-82
2022/07/02 05:46:51;;;;;;;5.60;3.77;;;;;;;17.86;61.54;98745.06;8381229;28;20227;-82
2022/07/02 05:50:54;;;;;;;10.40;3.90;;;;;;;18.25;60.99;98735.66;8380745;28;20239;-81
2022/07/02 05:54:57;;;;;;;7.70;3.70;;;;;;;18.36;60.84;98725.31;8380951;28;20227;-81
2022/07/02 05:59:01;;;;;;;7.27;3.80;;;;;;;18.36;61.11;98731.41;8381092;28;20238;-80
2022/07/02 06:03:04;;;;;;;6.03;3.80;;;;;;;18.36;61.51;98735.81;8397319;28;20230;-81
2022/07/02 06:11:29;;;;;;;4.07;3.40;;;;;;;18.42;61.99;98731.97;8413293;28;20537;-80
2022/07/02 06:15:33;;;;;;;7.30;4.40;;;;;;;18.38;62.35;98730.47;8413501;28;20226;-81
2022/07/02 06:19:36;;;;;;;5.37;3.47;;;;;;;18.67;61.66;98729.41;8413701;28;20230;-80
2022/07/02 06:23:40;;;;;;;5.30;3.90;;;;;;;18.36;62.86;98720.06;8413481;28;20249;-81
2022/07/02 06:27:42;;;;;;;4.70;3.80;;;;;;;18.57;62.45;98728.34;8413415;28;20230;-81
2022/07/02 06:31:47;;;;;;;4.53;3.40;;;;;;;19.00;60.57;98722.94;8413213;28;20227;-81
2022/07/02 06:35:50;;;;;;;6.27;5.27;;;;;;;18.59;62.00;98730.88;8413203;28;20243;-81
2022/07/02 06:39:53;;;;;;;4.93;3.53;;;;;;;18.71;61.85;98730.06;8416469;28;20229;-81
2022/07/02 06:43:56;;;;;;;3.47;3.00;;;;;;;18.54;61.66;98733.78;8419201;28;20231;-82
2022/07/02 06:48:01;;;;;;;3.37;3.07;;;;;;;18.76;60.78;98722.72;8419483;28;20226;-81
2022/07/02 06:52:05;;;;;;;3.30;3.00;;;;;;;18.63;61.60;98727.09;8419251;28;20340;-82
2022/07/02 06:56:08;;;;;;;3.30;2.90;;;;;;;19.45;58.82;98730.41;8419059;28;20553;-82
2022/07/02 07:00:12;;;;;;;4.23;2.60;;;;;;;19.96;57.91;98735.63;8419039;28;20230;-83
2022/07/02 07:04:16;;;;;;;6.83;2.70;;;;;;;20.29;56.79;98723.63;8418885;28;20232;-83
2022/07/02 07:08:19;;;;;;;3.23;2.93;;;;;;;20.14;56.73;98727.38;8419158;28;20236;-82
2022/07/02 07:12:22;;;;;;;4.53;3.60;;;;;;;20.24;57.39;98720.53;8418161;28;20235;-81
2022/07/02 07:16:25;;;;;;;5.57;4.00;;;;;;;20.26;56.45;98726.50;8418678;28;20240;-81
2022/07/02 07:20:31;;;;;;;6.67;3.70;;;;;;;20.29;56.65;98731.53;8418380;28;20341;-81
2022/07/02 07:24:33;;;;;;;5.93;3.67;;;;;;;20.73;54.13;98735.38;8418306;28;20416;-78
2022/07/02 07:28:36;;;;;;;5.70;3.00;;;;;;;20.86;53.66;98725.59;8418086;28;20542;-81
2022/07/02 07:32:39;;;;;;;4.27;2.77;;;;;;;21.40;52.46;98732.09;8418339;28;20229;-82
2022/07/02 07:36:43;;;;;;;4.23;3.20;;;;;;;21.06;51.49;98731.19;8417744;28;20238;-85
2022/07/02 07:40:47;;;;;;;3.33;1.80;;;;;;;22.05;51.26;98743.75;8418080;28;20295;-81
2022/07/02 07:44:49;;;;;;;3.20;2.70;;;;;;;22.29;50.29;98740.13;8417743;28;20240;-80
2022/07/02 07:48:52;;;;;;;3.60;2.50;;;;;;;21.79;49.77;98727.34;8417692;28;20408;-82
2022/07/02 07:52:57;;;;;;;6.20;2.30;;;;;;;22.24;48.48;98724.66;8416849;28;20223;-82
2022/07/02 07:57:00;;;;;;;4.93;2.63;;;;;;;22.67;46.80;98733.53;8417491;28;20296;-81
2022/07/02 08:01:02;;;;;;;4.03;2.07;;;;;;;22.91;47.26;98738.59;8417279;28;20223;-81
2022/07/02 08:05:06;;;;;;;2.93;1.97;;;;;;;22.67;45.92;98732.69;8417167;28;20238;-81
2022/07/02 08:09:11;;;;;;;3.57;1.80;;;;;;;23.16;44.14;98734.75;8417237;28;20261;-81
2022/07/02 08:13:13;;;;;;;7.20;1.80;;;;;;;22.89;43.98;98732.59;8417063;28;20416;-80
2022/07/02 08:17:16;;;;;;;2.73;1.50;;;;;;;23.74;42.93;98728.97;8416916;28;20230;-81
2022/07/02 08:21:19;;;;;;;2.27;1.70;;;;;;;24.14;41.14;98728.16;8416441;28;20234;-81
2022/07/02 08:25:23;;;;;;;2.13;1.30;;;;;;;23.64;42.15;98727.25;8416266;28;20231;-79
2022/07/02 08:29:26;;;;;;;4.23;1.43;;;;;;;23.95;41.17;98726.28;8416373;28;20290;-80
2022/07/02 08:33:29;;;;;;;2.03;1.17;;;;;;;23.95;39.22;98728.94;8416205;28;20239;-80
2022/07/02 08:37:32;;;;;;;3.83;1.90;;;;;;;23.71;39.05;98720.47;8415901;28;20231;-80
2022/07/02 08:41:37;;;;;;;4.30;1.30;;;;;;;23.18;40.35;98716.16;8415892;28;20238;-80
2022/07/02 08:45:43;;;;;;;3.97;1.30;;;;;;;23.06;39.42;98710.09;8415898;28;20239;-81
2022/07/02 08:49:46;;;;;;;3.53;1.17;;;;;;;24.46;38.30;98708.53;8415693;28;20235;-81
2022/07/02 08:53:49;;;;;;;2.70;1.17;;;;;;;24.57;40.12;98707.59;8415646;28;20250;-81
2022/07/02 08:57:54;;;;;;;2.27;1.10;;;;;;;24.75;36.33;98698.00;8415485;28;20222;-81
2022/07/02 09:01:57;;;;;;;1.30;1.00;;;;;;;24.18;36.60;98705.72;8414334;28;20231;-80
2022/07/02 09:06:00;;;;;;;5.57;1.17;;;;;;;24.18;37.86;98702.25;8415030;28;20227;-81
2022/07/02 09:10:03;;;;;;;2.20;0.87;;;;;;;24.39;37.17;98692.38;8415150;28;20534;-80
2022/07/02 09:14:08;;;;;;;2.73;0.90;;;;;;;24.79;37.16;98687.97;8414786;28;20236;-80
2022/07/02 09:18:11;;;;;;;2.10;1.20;;;;;;;24.76;37.17;98685.59;8414781;28;20224;-80
2022/07/02 09:22:14;;;;;;;1.93;0.90;;;;;;;25.30;36.27;98685.91;8414479;28;20244;-80
2022/07/02 09:26:18;;;;;;;2.07;1.00;;;;;;;25.84;37.28;98684.31;8414773;28;20546;-80
2022/07/02 09:30:22;;;;;;;3.77;1.10;;;;;;;24.84;34.46;98680.41;8414632;28;20255;-81
2022/07/02 09:34:30;;;;;;;1.70;1.07;;;;;;;24.61;34.49;98679.03;8414085;28;20300;-80
2022/07/02 09:38:40;;;;;;;2.40;1.10;;;;;;;25.52;33.41;98682.91;8414193;28;20236;-80
2022/07/02 09:42:47;;;;;;;1.60;1.10;;;;;;;25.58;33.35;98675.38;8414308;28;20248;-80
2022/07/02 09:46:51;;;;;;;1.63;1.10;;;;;;;25.33;34.91;98667.91;8414100;28;20568;-80
2022/07/02 09:50:55;;;;;;;1.73;1.17;;;;;;;24.81;34.31;98670.13;8413944;28;20228;-80
2022/07/02 09:54:58;;;;;;;3.03;1.40;;;;;;;26.10;32.12;98660.59;8413711;28;20223;-80
2022/07/02 09:59:01;;;;;;;2.10;1.20;;;;;;;26.56;31.48;98646.38;8413790;28;20226;-80
2022/07/02 10:03:05;;;;;;;1.93;1.23;;;;;;;26.75;32.47;98648.91;8413836;28;20237;-80
2022/07/02 10:07:08;;;;;;;3.03;1.00;;;;;;;26.85;29.11;98657.63;8413163;28;20263;-81
2022/07/02 10:11:11;;;;;;;3.80;1.03;;;;;;;25.92;31.09;98654.41;8413806;28;20235;-77
2022/07/02 10:15:16;;;;;;;3.13;1.00;;;;;;;26.56;30.94;98651.69;8420516;28;20243;-88
2022/07/02 10:19:21;;;;;;;3.17;0.93;;;;;;;26.41;28.70;98654.91;8424786;28;20229;-78
2022/07/02 10:23:24;;;;;;;1.10;0.80;;;;;;;26.62;29.79;98649.31;8424165;28;20428;-79
2022/07/02 10:27:28;;;;;;;3.00;0.90;;;;;;;27.06;28.15;98649.28;8394979;28;20232;-78
2022/07/02 10:31:33;;;;;;;1.30;0.80;;;;;;;27.70;29.12;98656.94;8391230;28;20258;-77
2022/07/02 10:35:38;;;;;;;1.60;0.80;;;;;;;27.28;28.22;98647.09;8391177;28;20343;-79
2022/07/02 10:39:43;;;;;;;3.20;1.27;;;;;;;26.72;29.70;98636.75;8395690;28;20393;-75
2022/07/02 10:43:47;;;;;;;1.63;0.70;;;;;;;27.66;29.67;98629.00;8424373;28;20239;-78
2022/07/02 10:47:58;;;;;;;1.07;0.73;;;;;;;26.44;28.74;98621.91;8424475;28;20234;-78
2022/07/02 10:52:02;;;;;;;4.00;0.90;;;;;;;27.06;27.93;98621.88;8424427;28;20408;-79
2022/07/02 10:56:06;;;;;;;0.93;0.67;;;;;;;26.81;28.51;98615.59;8424091;28;20230;-78
2022/07/02 11:00:16;;;;;;;3.20;0.90;;;;;;;27.08;27.47;98615.41;8424289;28;20527;-78
2022/07/02 11:04:22;;;;;;;1.67;0.70;;;;;;;27.55;26.71;98608.84;8422537;28;20239;-78
2022/07/02 11:08:48;;;;;;;1.77;0.70;;;;;;;27.78;28.36;98587.81;8423518;28;20237;-79
2022/07/02 11:12:55;;;;;;;3.40;0.70;;;;;;;27.01;28.48;98576.31;8414110;28;20330;-81
2022/07/02 11:16:58;;;;;;;2.00;0.80;;;;;;;26.34;29.79;98580.34;8423831;28;20227;-81
2022/07/02 11:21:01;;;;;;;2.77;0.73;;;;;;;27.79;30.29;98568.16;8423484;28;20229;-81
2022/07/02 11:25:06;;;;;;;1.03;0.80;;;;;;;27.55;28.21;98576.94;8421337;28;20232;-81
2022/07/02 11:29:10;;;;;;;2.53;0.80;;;;;;;26.90;28.88;98572.09;8418237;28;20226;-81
2022/07/02 11:33:13;;;;;;;1.67;0.60;;;;;;;27.43;28.45;98560.41;8418224;28;20229;-83
2022/07/02 11:37:22;;;;;;;2.70;0.80;;;;;;;26.68;29.11;98565.50;8418384;28;20235;-84
2022/07/02 11:41:28;;;;;;;4.47;1.00;;;;;;;26.33;30.12;98561.91;8417826;28;20284;-90
2022/07/02 11:45:31;;;;;;;1.40;0.67;;;;;;;26.72;29.96;98567.69;8418548;28;20532;-82
2022/07/02 11:49:36;;;;;;;3.70;1.00;;;;;;;27.93;28.54;98568.56;8417762;28;20299;-82
2022/07/02 11:53:39;;;;;;;2.40;0.70;;;;;;;27.85;28.26;98562.22;8417381;28;20296;-82
2022/07/02 11:57:43;;;;;;;2.30;0.73;;;;;;;27.85;28.92;98556.03;8417683;28;20234;-81
2022/07/02 12:01:48;;;;;;;3.10;1.50;;;;;;;26.60;29.80;98562.78;8417237;28;20220;-81
2022/07/02 12:05:51;;;;;;;1.57;0.90;;;;;;;26.81;29.96;98560.63;8417294;28;20298;-81
2022/07/02 12:09:54;;;;;;;2.00;0.90;;;;;;;26.99;28.58;98554.41;8417037;28;20545;-80
2022/07/02 12:13:58;;;;;;;2.53;0.80;;;;;;;27.63;28.81;98542.38;8417053;28;20237;-81
2022/07/02 12:18:01;;;;;;;2.77;1.00;;;;;;;27.09;28.83;98544.47;8416880;28;20233;-81
2022/07/02 12:22:05;;;;;;;3.90;0.83;;;;;;;27.42;27.96;98528.69;8416930;28;20226;-79
2022/07/02 12:26:08;;;;;;;2.17;0.90;;;;;;;27.31;28.24;98516.50;8416484;28;20228;-82
2022/07/02 12:30:15;;;;;;;3.23;0.90;;;;;;;27.27;28.02;98516.00;8416583;28;20219;-82
2022/07/02 12:34:19;;;;;;;4.33;0.80;;;;;;;27.65;27.70;98505.78;8412849;28;20230;-82
2022/07/02 12:38:22;;;;;;;2.10;0.80;;;;;;;27.65;26.31;98502.31;8382595;28;20234;-79
2022/07/02 12:42:26;;;;;;;2.20;0.93;;;;;;;27.34;27.46;98505.56;8382812;28;20561;-80
2022/07/02 12:46:30;;;;;;;1.50;0.77;;;;;;;26.80;27.14;98489.03;8382615;28;20235;-88
2022/07/02 12:50:35;;;;;;;2.43;0.77;;;;;;;27.31;25.67;98476.63;8382789;28;20276;-83
2022/07/02 12:54:39;;;;;;;1.33;0.67;;;;;;;27.17;26.29;98477.22;8382744;28;20248;-79
2022/07/02 12:58:42;;;;;;;3.03;1.00;;;;;;;27.38;25.67;98482.97;8382493;28;20292;-80
2022/07/02 13:02:47;;;;;;;1.73;0.83;;;;;;;27.65;25.80;98468.53;8396212;28;20236;-80
2022/07/02 13:06:50;;;;;;;2.77;1.10;;;;;;;28.16;25.14;98475.56;8415051;28;20238;-83
2022/07/02 13:10:55;;;;;;;3.17;1.33;;;;;;;27.71;25.59;98482.19;8415251;28;20497;-81
2022/07/02 13:14:58;;;;;;;4.07;1.97;;;;;;;27.39;24.95;98467.84;8414862;28;20230;-82
2022/07/02 13:19:02;;;;;;;8.90;5.60;;;;;;;27.35;24.36;98464.66;8414733;28;20436;-84
2022/07/02 13:23:05;;;;;;;7.60;5.07;;;;;;;27.66;24.91;98475.53;8414804;28;20234;-83
2022/07/02 13:27:08;;;;;;;3.90;3.33;;;;;;;28.33;25.29;98465.72;8414509;28;20242;-84
2022/07/02 13:31:11;;;;;;;9.33;6.33;;;;;;;28.08;23.83;98460.41;8414735;28;20241;-89
2022/07/02 13:35:15;;;;;;;2.07;1.50;;;;;;;27.65;24.81;98467.72;8414935;28;20232;-88
2022/07/02 13:39:18;;;;;;;1.53;1.13;;;;;;;27.67;25.09;98463.88;8414687;28;20240;-86
2022/07/02 13:43:21;;;;;;;1.57;0.80;;;;;;;27.86;25.07;98457.41;8414410;28;20548;-87
2022/07/02 13:47:24;;;;;;;2.13;0.80;;;;;;;27.70;24.49;98449.41;8413787;28;20225;-82
2022/07/02 13:51:29;;;;;;;3.87;1.20;;;;;;;28.02;24.76;98439.81;8413767;28;20555;-79
2022/07/02 13:55:32;;;;;;;2.73;1.10;;;;;;;27.84;24.87;98443.44;8413767;28;20256;-85
2022/07/02 13:59:35;;;;;;;1.87;0.97;;;;;;;27.70;26.25;98438.78;8413487;28;20233;-84
2022/07/02 14:03:38;;;;;;;4.27;1.07;;;;;;;28.11;25.06;98427.31;8413765;28;20237;-84
2022/07/02 14:07:42;;;;;;;2.30;1.10;;;;;;;27.58;25.72;98427.63;8413728;28;20542;-84
2022/07/02 14:11:51;;;;;;;1.93;0.83;;;;;;;27.52;24.92;98409.69;8413533;28;20442;-83
2022/07/02 14:15:53;;;;;;;3.87;1.10;;;;;;;28.26;26.47;98412.31;8413791;28;20347;-83
2022/07/02 14:19:56;;;;;;;0.73;0.73;;;;;;;28.03;24.87;98409.53;8413572;28;20235;-83
2022/07/02 14:24:01;;;;;;;1.10;0.70;;;;;;;28.16;24.29;98404.53;8413563;28;20244;-82
2022/07/02 14:28:04;;;;;;;2.20;0.90;;;;;;;27.30;24.56;98405.81;8413975;28;20230;-82
2022/07/02 14:32:08;;;;;;;1.23;0.80;;;;;;;27.56;24.06;98399.53;8413385;28;20231;-84
2022/07/02 14:36:11;;;;;;;1.13;0.90;;;;;;;27.68;24.33;98393.75;8413512;28;20336;-84
2022/07/02 14:40:15;;;;;;;1.93;0.90;;;;;;;27.81;24.76;98393.22;8413381;28;20428;-84
2022/07/02 14:44:18;;;;;;;2.40;1.00;;;;;;;28.22;25.05;98385.19;8413228;28;20235;-82
2022/07/02 14:48:21;;;;;;;1.80;0.97;;;;;;;28.11;25.46;98374.91;8412937;28;20231;-80
2022/07/02 14:52:23;;;;;;;2.83;0.90;;;;;;;27.49;24.55;98368.31;8399216;28;20232;-78
2022/07/02 14:56:27;;;;;;;2.20;0.93;;;;;;;27.55;25.73;98381.91;8379829;28;20244;-79
2022/07/02 15:00:30;;;;;;;4.70;1.20;;;;;;;27.69;24.72;98378.59;8380477;28;20239;-78
2022/07/02 15:04:33;;;;;;;3.43;0.80;;;;;;;27.71;23.68;98367.78;8414828;28;20238;-77
2022/07/02 15:08:36;;;;;;;1.00;0.90;;;;;;;27.60;24.48;98347.66;8418771;28;20239;-78
2022/07/02 15:12:41;;;;;;;2.07;0.87;;;;;;;27.16;25.15;98337.34;8418878;28;20233;-78
2022/07/02 15:16:43;;;;;;;2.23;1.00;;;;;;;27.29;25.90;98340.38;8418705;28;20230;-79
2022/07/02 15:20:47;;;;;;;2.50;1.17;;;;;;;27.21;26.22;98335.03;8418738;28;20232;-78
2022/07/02 15:24:53;;;;;;;1.57;0.90;;;;;;;27.29;26.85;98319.91;8418470;28;20233;-78
2022/07/02 15:28:59;;;;;;;1.53;0.90;;;;;;;27.05;26.47;98314.56;8418393;28;20233;-79
2022/07/02 15:33:02;;;;;;;1.87;1.50;;;;;;;27.27;26.77;98313.13;8416010;28;20236;-79
2022/07/02 15:37:07;;;;;;;3.03;0.80;;;;;;;26.85;26.02;98296.28;8418517;28;20295;-78
2022/07/02 15:41:10;;;;;;;1.27;0.97;;;;;;;26.59;26.28;98293.72;8409942;28;20549;-78
2022/07/02 15:45:16;;;;;;;3.83;0.97;;;;;;;26.82;27.24;98303.72;8384612;28;20223;-81
2022/07/02 15:49:19;;;;;;;3.43;0.70;;;;;;;27.02;27.27;98296.31;8385467;28;20224;-81
2022/07/02 15:53:23;;;;;;;3.90;0.90;;;;;;;27.13;26.29;98284.50;8385083;28;20229;-80
2022/07/02 15:57:32;;;;;;;2.23;1.10;;;;;;;27.13;27.40;98281.84;8385479;28;20263;-81
2022/07/02 16:01:37;;;;;;;1.80;1.10;;;;;;;27.18;26.63;98275.03;8388947;28;20241;-81
2022/07/02 16:05:42;;;;;;;2.20;1.30;;;;;;;27.09;27.00;98276.88;8418553;28;20245;-81
2022/07/02 16:09:45;;;;;;;2.07;1.00;;;;;;;27.17;26.47;98272.53;8418052;28;20231;-81
2022/07/02 16:13:48;;;;;;;3.30;0.80;;;;;;;26.95;26.98;98272.19;8417512;28;20228;-80
2022/07/02 16:18:02;;;;;;;1.53;1.10;;;;;;;27.09;27.00;98262.72;8387872;28;20236;-80
2022/07/02 16:22:06;;;;;;;2.80;1.03;;;;;;;26.84;27.42;98257.41;8384678;28;20231;-80
2022/07/02 16:26:09;;;;;;;1.57;0.90;;;;;;;26.99;27.56;98256.75;8383655;28;20237;-80
2022/07/02 16:30:12;;;;;;;1.87;1.20;;;;;;;26.96;27.78;98255.28;8384294;28;20238;-80
2022/07/02 16:34:20;;;;;;;4.60;1.30;;;;;;;26.91;28.51;98250.44;8388192;28;20224;-80
2022/07/02 16:38:25;;;;;;;1.87;1.00;;;;;;;26.71;28.35;98249.94;8413306;28;20255;-79
2022/07/02 16:42:29;;;;;;;2.27;1.00;;;;;;;26.81;28.04;98251.63;8413787;28;20229;-80
2022/07/02 16:46:32;;;;;;;2.20;0.80;;;;;;;26.68;28.30;98246.78;8415689;28;20239;-80
2022/07/02 16:50:37;;;;;;;1.13;1.00;;;;;;;26.54;29.29;98237.59;8416178;28;20237;-80
2022/07/02 16:54:42;;;;;;;1.87;1.00;;;;;;;26.53;28.84;98233.25;8416134;28;20229;-81
2022/07/02 16:58:47;;;;;;;1.30;1.00;;;;;;;26.45;29.31;98230.59;8416115;28;20232;-80
2022/07/02 17:02:50;;;;;;;1.60;0.90;;;;;;;26.51;29.57;98235.25;8416355;28;20237;-82
2022/07/02 17:06:54;;;;;;;1.60;1.03;;;;;;;26.13;29.97;98232.97;8415903;28;20231;-86
2022/07/02 17:15:17;;;;;;;2.17;1.30;;;;;;;26.21;30.13;98224.22;8415847;28;20234;-82
2022/07/02 17:19:20;;;;;;;1.83;1.37;;;;;;;26.11;30.70;98220.88;8415366;28;20230;-81
2022/07/02 17:23:26;;;;;;;11.83;2.87;;;;;;;26.18;29.82;98213.09;8413960;28;20537;-82
2022/07/02 17:27:29;;;;;;;3.17;1.60;;;;;;;26.14;29.91;98207.28;8396372;28;20235;-81
2022/07/02 17:31:32;;;;;;;2.53;1.60;;;;;;;25.96;30.35;98210.03;8382223;28;20506;-86
2022/07/02 17:35:35;;;;;;;1.53;1.00;;;;;;;26.00;30.51;98214.03;8382730;28;20237;-84
2022/07/02 17:39:39;;;;;;;4.00;1.10;;;;;;;25.91;30.63;98213.19;8382174;28;20228;-85
2022/07/02 17:43:43;;;;;;;3.40;1.27;;;;;;;25.92;30.46;98208.69;8385673;28;20537;-87
2022/07/02 17:47:45;;;;;;;2.57;1.00;;;;;;;25.80;30.70;98208.13;8381691;28;20232;-86
2022/07/02 17:51:48;;;;;;;1.00;0.90;;;;;;;25.87;31.02;98210.97;8381949;28;20230;-83
2022/07/02 17:55:53;;;;;;;2.40;1.30;;;;;;;25.74;30.61;98206.94;8381355;28;20236;-82
2022/07/02 17:59:56;;;;;;;4.03;1.60;;;;;;;25.75;29.91;98197.97;8381648;28;20386;-80
2022/07/02 18:03:59;;;;;;;2.17;1.40;;;;;;;25.88;30.90;98196.72;8406078;28;20418;-80
2022/07/02 18:08:02;;;;;;;1.10;1.00;;;;;;;25.70;30.81;98202.09;8414439;28;20244;-85
2022/07/02 18:12:07;;;;;;;1.10;1.00;;;;;;;25.74;30.93;98201.63;8415149;28;20235;-86
2022/07/02 18:16:10;;;;;;;2.50;1.10;;;;;;;25.61;31.43;98198.59;8409539;28;20431;-81
2022/07/02 18:20:13;;;;;;;1.87;1.20;;;;;;;25.60;31.41;98196.91;8414665;28;20230;-80
2022/07/02 18:24:16;;;;;;;2.40;1.40;;;;;;;25.51;31.99;98201.34;8414266;28;20233;-79
2022/07/02 18:28:20;;;;;;;1.73;1.03;;;;;;;25.47;31.56;98192.03;8413929;28;20551;-78
2022/07/02 18:32:25;;;;;;;2.93;2.00;;;;;;;25.44;31.06;98197.66;8412854;28;20232;-82
2022/07/02 18:36:28;;;;;;;2.33;2.13;;;;;;;25.52;31.49;98192.41;8418201;28;20283;-80
2022/07/02 18:40:30;;;;;;;1.47;1.23;;;;;;;25.48;31.43;98190.22;8420564;28;20536;-80
2022/07/02 18:44:35;;;;;;;3.40;1.37;;;;;;;25.39;30.21;98196.47;8421033;28;20241;-80
2022/07/02 18:48:38;;;;;;;2.07;1.50;;;;;;;25.38;30.87;98192.13;8420783;28;20535;-80
2022/07/02 18:52:41;;;;;;;3.60;1.70;;;;;;;25.34;31.15;98191.63;8420748;28;20237;-80
2022/07/02 18:56:45;;;;;;;3.07;1.20;;;;;;;25.35;31.07;98182.69;8420520;28;20235;-80
2022/07/02 19:00:49;;;;;;;3.77;1.80;;;;;;;25.24;30.60;98190.91;8420390;28;20229;-80
2022/07/02 19:04:52;;;;;;;2.60;1.60;;;;;;;25.22;31.21;98190.19;8420082;28;20546;-80
2022/07/02 19:08:55;;;;;;;2.20;1.40;;;;;;;25.16;32.01;98202.25;8420109;28;20242;-80
2022/07/02 19:12:58;;;;;;;7.10;1.30;;;;;;;25.11;32.51;98194.78;8420182;28;20237;-85
2022/07/02 19:17:03;;;;;;;3.33;1.60;;;;;;;25.01;33.52;98195.84;8419924;28;20234;-82